Braddock Heights, MD (21714)

11:14 AM EDT on September 03, 2015 (GMT -0400)
Braddock Mtn, East Slope @ 950' | | Change Station
CLOSE
Current Station
Personal Weather Station
Location: Frederick, MD
Elevation: 942 ft
Nearby Weather Stations

Elev 942 ft 39.43 °N, 77.49 °W | Updated 23 seconds ago

Clear
Clear
84.2 °F
Feels Like 91 °F
N
1.1
Wind Variable Wind from SE
Gusts 1.8 mph

Today
High -- | Low -- °F
--% Chance of Precip.
Yesterday
High -- | Low -- °F
Precip. -- in
6:40 AM 7:38 PM
Waning Gibbous, 69% visible
Pressure 29.97 in
Visibility 10.0 miles
Clouds Clear
Heat Index 91 °F
Dew Point 73 °F
Humidity 69%
Rainfall 0.00 in
Snow Depth Not available.
UV 6 out of 12
Pollen 9.80 out of 12
Air Quality Not available.
Flu Activity Not available.
METAR KFDK 031450Z 00000KT 10SM SKC 29/22 A2997
Pressure 29.97 in
Visibility 10.0 miles
Clouds Clear
Heat Index 91 °F
Dew Point 73 °F
Humidity 69%
Rainfall 0.00 in
Snow Depth Not available.
UV 6 out of 12
Pollen 9.80 out of 12
Air Quality Not available.
Flu Activity Not available.
METAR KFDK 031450Z 00000KT 10SM SKC 29/22 A2997

10-Day Weather Forecast

×

Almanac

Astronomy

Sep. 03, 2015 Rise Set
Actual Time
Civil Twilight
Nautical Twilight
Astronomical Twilight
Moon
Length of Visible Light
Length of Day
Tomorrow will be .
, % of the Moon is Illuminated

Today's Extremes

State Highs State Lows

Community

WunderPhotos

Upload Photos

1,851,972 photos uploaded!

WunderBlogs® & News

Nearby

Air Quality

  Air Quality AQ Index Pollutant
Not available.

Snow Depth

Station Depth Elevation

Earthquake Activity

City Distance Mag. Time & Date
Minimum magnitude displayed is 2.5.

Coastal Water Temperatures

Place Temperature

Stations

Nearby Weather Stations

Station Location Temp. Windchill Dew Point Humidity Wind Precip. Elev Updated Type